Melrose, Minnesota
Current Conditions -  °F | °C
As of 12:52 PM on Tuesday 27 Jan 2015 (Local Time) from KD39 Reporting Station
Overcast Overcast  
Wind Chill: 22°   Ceiling: 800
Heat Index: 31°   Visibility: 10mi
Dew Point: 28°   Wind: 12mph
Humidity: 90%   Direction: 150°SSE
Pressure: 30.11"   Gusts: NA
Location:  45.67°N, 94.81°W
Report Text: KD39 271852Z AUTO 15010KT 10SM OVC008 M01/M02 A3011 RMK AO2 T10061021
Loading
Personal Weather Stations






























Interactive Weather Map New forecast layout! Learn more

10-Day Weather Forecast

Advertisements
Track Severe Weather on mobile